sensor_id;sensor_type;location;lat;lon;timestamp;P1;durP1;ratioP1;P2;durP2;ratioP2
11313;SDS011;5712;48.858;9.206;2023-04-24T00:01:19;1.03;;;0.80;;
11313;SDS011;5712;48.858;9.206;2023-04-24T00:03:46;1.57;;;0.87;;
11313;SDS011;5712;48.858;9.206;2023-04-24T00:06:12;1.03;;;0.87;;
11313;SDS011;5712;48.858;9.206;2023-04-24T00:08:41;1.67;;;0.87;;
11313;SDS011;5712;48.858;9.206;2023-04-24T00:11:10;1.40;;;0.80;;
11313;SDS011;5712;48.858;9.206;2023-04-24T00:13:37;1.53;;;0.80;;
11313;SDS011;5712;48.858;9.206;2023-04-24T00:16:04;2.00;;;0.97;;
11313;SDS011;5712;48.858;9.206;2023-04-24T00:18:30;0.87;;;0.80;;
11313;SDS011;5712;48.858;9.206;2023-04-24T00:20:57;1.33;;;0.90;;
11313;SDS011;5712;48.858;9.206;2023-04-24T00:23:23;1.00;;;0.67;;
11313;SDS011;5712;48.858;9.206;2023-04-24T00:25:50;2.13;;;0.80;;
11313;SDS011;5712;48.858;9.206;2023-04-24T00:28:18;3.53;;;0.90;;
11313;SDS011;5712;48.858;9.206;2023-04-24T00:30:44;1.70;;;0.73;;
11313;SDS011;5712;48.858;9.206;2023-04-24T00:33:11;1.10;;;0.97;;
11313;SDS011;5712;48.858;9.206;2023-04-24T00:35:37;1.73;;;0.80;;
11313;SDS011;5712;48.858;9.206;2023-04-24T00:38:04;2.67;;;1.17;;
11313;SDS011;5712;48.858;9.206;2023-04-24T00:40:31;1.20;;;0.80;;
11313;SDS011;5712;48.858;9.206;2023-04-24T00:42:57;1.53;;;0.80;;
11313;SDS011;5712;48.858;9.206;2023-04-24T00:45:25;1.13;;;0.70;;
11313;SDS011;5712;48.858;9.206;2023-04-24T00:47:52;0.80;;;0.60;;
11313;SDS011;5712;48.858;9.206;2023-04-24T00:50:20;1.27;;;0.70;;
11313;SDS011;5712;48.858;9.206;2023-04-24T00:52:47;2.20;;;0.90;;
11313;SDS011;5712;48.858;9.206;2023-04-24T00:55:13;1.63;;;0.70;;
11313;SDS011;5712;48.858;9.206;2023-04-24T00:57:40;2.93;;;0.80;;
11313;SDS011;5712;48.858;9.206;2023-04-24T01:00:07;2.03;;;1.10;;
11313;SDS011;5712;48.858;9.206;2023-04-24T01:02:38;0.93;;;0.70;;
11313;SDS011;5712;48.858;9.206;2023-04-24T01:05:09;0.93;;;0.90;;
11313;SDS011;5712;48.858;9.206;2023-04-24T01:07:36;0.70;;;0.70;;
11313;SDS011;5712;48.858;9.206;2023-04-24T01:10:04;1.37;;;0.80;;
11313;SDS011;5712;48.858;9.206;2023-04-24T01:12:31;1.13;;;0.67;;
11313;SDS011;5712;48.858;9.206;2023-04-24T01:14:58;1.07;;;0.80;;
11313;SDS011;5712;48.858;9.206;2023-04-24T01:17:25;1.47;;;0.80;;
11313;SDS011;5712;48.858;9.206;2023-04-24T01:19:53;0.87;;;0.70;;
11313;SDS011;5712;48.858;9.206;2023-04-24T01:22:23;1.57;;;0.70;;
11313;SDS011;5712;48.858;9.206;2023-04-24T01:24:49;0.53;;;0.53;;
11313;SDS011;5712;48.858;9.206;2023-04-24T01:27:16;3.03;;;1.00;;
11313;SDS011;5712;48.858;9.206;2023-04-24T01:29:42;2.20;;;1.00;;
11313;SDS011;5712;48.858;9.206;2023-04-24T01:32:09;1.03;;;0.70;;
11313;SDS011;5712;48.858;9.206;2023-04-24T01:34:36;3.00;;;0.80;;
11313;SDS011;5712;48.858;9.206;2023-04-24T01:37:03;0.93;;;0.70;;
11313;SDS011;5712;48.858;9.206;2023-04-24T01:39:32;2.00;;;0.70;;
11313;SDS011;5712;48.858;9.206;2023-04-24T01:41:59;0.80;;;0.77;;
11313;SDS011;5712;48.858;9.206;2023-04-24T01:44:26;0.80;;;0.80;;
11313;SDS011;5712;48.858;9.206;2023-04-24T01:46:54;1.80;;;0.70;;
11313;SDS011;5712;48.858;9.206;2023-04-24T01:49:21;1.50;;;0.77;;
11313;SDS011;5712;48.858;9.206;2023-04-24T01:51:47;1.13;;;0.70;;
11313;SDS011;5712;48.858;9.206;2023-04-24T01:54:14;1.00;;;0.80;;
11313;SDS011;5712;48.858;9.206;2023-04-24T01:56:42;0.90;;;0.80;;
11313;SDS011;5712;48.858;9.206;2023-04-24T01:59:09;0.60;;;0.60;;
11313;SDS011;5712;48.858;9.206;2023-04-24T02:01:37;0.97;;;0.73;;
11313;SDS011;5712;48.858;9.206;2023-04-24T02:04:04;1.00;;;0.77;;
11313;SDS011;5712;48.858;9.206;2023-04-24T02:06:32;1.73;;;0.77;;
11313;SDS011;5712;48.858;9.206;2023-04-24T02:08:59;1.13;;;0.70;;
11313;SDS011;5712;48.858;9.206;2023-04-24T02:11:25;1.47;;;0.90;;
11313;SDS011;5712;48.858;9.206;2023-04-24T02:13:53;2.80;;;0.90;;
11313;SDS011;5712;48.858;9.206;2023-04-24T02:16:20;1.30;;;0.83;;
11313;SDS011;5712;48.858;9.206;2023-04-24T02:18:46;1.23;;;0.70;;
11313;SDS011;5712;48.858;9.206;2023-04-24T02:21:13;2.03;;;0.90;;
11313;SDS011;5712;48.858;9.206;2023-04-24T02:23:39;1.40;;;1.00;;
11313;SDS011;5712;48.858;9.206;2023-04-24T02:26:06;1.67;;;0.80;;
11313;SDS011;5712;48.858;9.206;2023-04-24T02:28:32;0.87;;;0.80;;
11313;SDS011;5712;48.858;9.206;2023-04-24T02:31:00;2.50;;;1.00;;
11313;SDS011;5712;48.858;9.206;2023-04-24T02:33:27;1.77;;;0.90;;
11313;SDS011;5712;48.858;9.206;2023-04-24T02:35:53;1.00;;;0.80;;
11313;SDS011;5712;48.858;9.206;2023-04-24T02:38:20;1.23;;;0.90;;
11313;SDS011;5712;48.858;9.206;2023-04-24T02:40:46;0.83;;;0.80;;
11313;SDS011;5712;48.858;9.206;2023-04-24T02:43:13;0.73;;;0.70;;
11313;SDS011;5712;48.858;9.206;2023-04-24T02:45:39;1.53;;;0.70;;
11313;SDS011;5712;48.858;9.206;2023-04-24T02:48:07;1.47;;;1.00;;
11313;SDS011;5712;48.858;9.206;2023-04-24T02:50:33;2.90;;;0.80;;
11313;SDS011;5712;48.858;9.206;2023-04-24T02:53:00;1.20;;;0.90;;
11313;SDS011;5712;48.858;9.206;2023-04-24T02:55:26;1.00;;;0.80;;
11313;SDS011;5712;48.858;9.206;2023-04-24T02:57:53;2.03;;;0.70;;
11313;SDS011;5712;48.858;9.206;2023-04-24T03:00:19;0.63;;;0.60;;
11313;SDS011;5712;48.858;9.206;2023-04-24T03:02:46;1.03;;;0.80;;
11313;SDS011;5712;48.858;9.206;2023-04-24T03:05:15;1.93;;;0.93;;
11313;SDS011;5712;48.858;9.206;2023-04-24T03:07:42;0.80;;;0.80;;
11313;SDS011;5712;48.858;9.206;2023-04-24T03:10:08;1.23;;;0.90;;
11313;SDS011;5712;48.858;9.206;2023-04-24T03:12:35;1.10;;;0.90;;
11313;SDS011;5712;48.858;9.206;2023-04-24T03:15:02;1.33;;;0.90;;
11313;SDS011;5712;48.858;9.206;2023-04-24T03:17:29;1.93;;;1.00;;
11313;SDS011;5712;48.858;9.206;2023-04-24T03:19:55;2.17;;;0.90;;
11313;SDS011;5712;48.858;9.206;2023-04-24T03:22:23;1.43;;;0.80;;
11313;SDS011;5712;48.858;9.206;2023-04-24T03:24:50;0.83;;;0.80;;
11313;SDS011;5712;48.858;9.206;2023-04-24T03:27:16;1.20;;;0.70;;
11313;SDS011;5712;48.858;9.206;2023-04-24T03:29:43;0.80;;;0.80;;
11313;SDS011;5712;48.858;9.206;2023-04-24T03:32:10;1.80;;;0.87;;
11313;SDS011;5712;48.858;9.206;2023-04-24T03:34:36;2.43;;;0.80;;
11313;SDS011;5712;48.858;9.206;2023-04-24T03:37:03;0.97;;;0.90;;
11313;SDS011;5712;48.858;9.206;2023-04-24T03:39:30;1.83;;;0.93;;
11313;SDS011;5712;48.858;9.206;2023-04-24T03:41:57;1.10;;;0.90;;
11313;SDS011;5712;48.858;9.206;2023-04-24T03:44:23;2.10;;;0.80;;
11313;SDS011;5712;48.858;9.206;2023-04-24T03:46:50;2.20;;;1.20;;
11313;SDS011;5712;48.858;9.206;2023-04-24T03:49:16;2.93;;;0.90;;
11313;SDS011;5712;48.858;9.206;2023-04-24T03:51:43;1.30;;;0.90;;
11313;SDS011;5712;48.858;9.206;2023-04-24T03:54:09;1.40;;;0.90;;
11313;SDS011;5712;48.858;9.206;2023-04-24T03:56:37;1.70;;;0.80;;
11313;SDS011;5712;48.858;9.206;2023-04-24T03:59:03;1.07;;;0.97;;
11313;SDS011;5712;48.858;9.206;2023-04-24T04:01:30;0.70;;;0.70;;
11313;SDS011;5712;48.858;9.206;2023-04-24T04:03:57;1.00;;;0.80;;
11313;SDS011;5712;48.858;9.206;2023-04-24T04:06:23;0.80;;;0.70;;
11313;SDS011;5712;48.858;9.206;2023-04-24T04:08:50;3.13;;;0.70;;
11313;SDS011;5712;48.858;9.206;2023-04-24T04:11:16;1.80;;;0.83;;
11313;SDS011;5712;48.858;9.206;2023-04-24T04:13:44;2.20;;;0.93;;
11313;SDS011;5712;48.858;9.206;2023-04-24T04:16:12;1.23;;;0.83;;
11313;SDS011;5712;48.858;9.206;2023-04-24T04:18:41;1.60;;;0.80;;
11313;SDS011;5712;48.858;9.206;2023-04-24T04:21:08;2.10;;;0.93;;
11313;SDS011;5712;48.858;9.206;2023-04-24T04:23:34;1.23;;;0.90;;
11313;SDS011;5712;48.858;9.206;2023-04-24T04:26:01;1.63;;;1.20;;
11313;SDS011;5712;48.858;9.206;2023-04-24T04:28:28;1.27;;;1.00;;
11313;SDS011;5712;48.858;9.206;2023-04-24T04:30:57;1.77;;;0.90;;
11313;SDS011;5712;48.858;9.206;2023-04-24T04:33:23;1.57;;;1.00;;
11313;SDS011;5712;48.858;9.206;2023-04-24T04:35:51;1.57;;;1.30;;
11313;SDS011;5712;48.858;9.206;2023-04-24T04:38:18;1.30;;;1.00;;
11313;SDS011;5712;48.858;9.206;2023-04-24T04:40:44;1.80;;;1.10;;
11313;SDS011;5712;48.858;9.206;2023-04-24T04:43:11;2.43;;;1.10;;
11313;SDS011;5712;48.858;9.206;2023-04-24T04:45:39;1.47;;;1.13;;
11313;SDS011;5712;48.858;9.206;2023-04-24T04:48:07;2.10;;;1.30;;
11313;SDS011;5712;48.858;9.206;2023-04-24T04:50:34;1.20;;;1.10;;
11313;SDS011;5712;48.858;9.206;2023-04-24T04:53:01;4.33;;;1.40;;
11313;SDS011;5712;48.858;9.206;2023-04-24T04:55:27;2.57;;;1.50;;
11313;SDS011;5712;48.858;9.206;2023-04-24T04:57:54;1.10;;;1.00;;
11313;SDS011;5712;48.858;9.206;2023-04-24T05:00:22;2.23;;;1.50;;
11313;SDS011;5712;48.858;9.206;2023-04-24T05:02:50;1.50;;;1.10;;
11313;SDS011;5712;48.858;9.206;2023-04-24T05:05:18;1.43;;;1.30;;
11313;SDS011;5712;48.858;9.206;2023-04-24T05:07:44;1.83;;;1.30;;
11313;SDS011;5712;48.858;9.206;2023-04-24T05:10:11;1.60;;;1.50;;
11313;SDS011;5712;48.858;9.206;2023-04-24T05:12:37;1.50;;;1.30;;
11313;SDS011;5712;48.858;9.206;2023-04-24T05:15:04;1.73;;;1.30;;
11313;SDS011;5712;48.858;9.206;2023-04-24T05:17:31;3.37;;;1.60;;
11313;SDS011;5712;48.858;9.206;2023-04-24T05:19:58;1.50;;;1.40;;
11313;SDS011;5712;48.858;9.206;2023-04-24T05:22:27;1.50;;;1.40;;
11313;SDS011;5712;48.858;9.206;2023-04-24T05:24:53;1.70;;;1.43;;
11313;SDS011;5712;48.858;9.206;2023-04-24T05:27:20;2.13;;;1.40;;
11313;SDS011;5712;48.858;9.206;2023-04-24T05:29:46;2.83;;;1.33;;
11313;SDS011;5712;48.858;9.206;2023-04-24T05:32:13;2.10;;;1.40;;
11313;SDS011;5712;48.858;9.206;2023-04-24T05:34:39;2.17;;;1.73;;
11313;SDS011;5712;48.858;9.206;2023-04-24T05:37:06;3.50;;;1.83;;
11313;SDS011;5712;48.858;9.206;2023-04-24T05:39:36;2.00;;;1.40;;
11313;SDS011;5712;48.858;9.206;2023-04-24T05:42:06;1.53;;;1.40;;
11313;SDS011;5712;48.858;9.206;2023-04-24T05:44:32;1.50;;;1.40;;
11313;SDS011;5712;48.858;9.206;2023-04-24T05:46:59;1.40;;;1.30;;
11313;SDS011;5712;48.858;9.206;2023-04-24T05:49:25;1.80;;;1.37;;
11313;SDS011;5712;48.858;9.206;2023-04-24T05:51:52;2.43;;;1.80;;
11313;SDS011;5712;48.858;9.206;2023-04-24T05:54:18;2.70;;;2.17;;
11313;SDS011;5712;48.858;9.206;2023-04-24T05:56:46;1.83;;;1.33;;
11313;SDS011;5712;48.858;9.206;2023-04-24T05:59:13;1.93;;;1.77;;
11313;SDS011;5712;48.858;9.206;2023-04-24T06:01:39;2.50;;;1.50;;
11313;SDS011;5712;48.858;9.206;2023-04-24T06:04:06;2.00;;;1.53;;
11313;SDS011;5712;48.858;9.206;2023-04-24T06:06:32;2.00;;;1.60;;
11313;SDS011;5712;48.858;9.206;2023-04-24T06:08:59;2.23;;;1.73;;
11313;SDS011;5712;48.858;9.206;2023-04-24T06:11:25;2.03;;;1.50;;
11313;SDS011;5712;48.858;9.206;2023-04-24T06:13:53;1.67;;;1.50;;
11313;SDS011;5712;48.858;9.206;2023-04-24T06:16:20;1.93;;;1.40;;
11313;SDS011;5712;48.858;9.206;2023-04-24T06:18:46;1.80;;;1.70;;
11313;SDS011;5712;48.858;9.206;2023-04-24T06:21:13;2.40;;;1.70;;
11313;SDS011;5712;48.858;9.206;2023-04-24T06:23:40;1.70;;;1.60;;
11313;SDS011;5712;48.858;9.206;2023-04-24T06:26:06;1.73;;;1.60;;
11313;SDS011;5712;48.858;9.206;2023-04-24T06:28:33;2.20;;;1.50;;
11313;SDS011;5712;48.858;9.206;2023-04-24T06:31:01;1.47;;;1.37;;
11313;SDS011;5712;48.858;9.206;2023-04-24T06:33:27;1.50;;;1.40;;
11313;SDS011;5712;48.858;9.206;2023-04-24T06:35:54;2.00;;;1.60;;
11313;SDS011;5712;48.858;9.206;2023-04-24T06:38:20;1.37;;;1.27;;
11313;SDS011;5712;48.858;9.206;2023-04-24T06:40:47;1.93;;;1.77;;
11313;SDS011;5712;48.858;9.206;2023-04-24T06:43:13;1.80;;;1.60;;
11313;SDS011;5712;48.858;9.206;2023-04-24T06:45:40;1.63;;;1.50;;
11313;SDS011;5712;48.858;9.206;2023-04-24T06:48:09;3.90;;;1.60;;
11313;SDS011;5712;48.858;9.206;2023-04-24T06:50:36;1.90;;;1.57;;
11313;SDS011;5712;48.858;9.206;2023-04-24T06:53:02;2.10;;;1.60;;
11313;SDS011;5712;48.858;9.206;2023-04-24T06:55:29;2.20;;;1.40;;
11313;SDS011;5712;48.858;9.206;2023-04-24T06:57:55;2.72;;;2.10;;
11313;SDS011;5712;48.858;9.206;2023-04-24T07:00:22;1.83;;;1.53;;
11313;SDS011;5712;48.858;9.206;2023-04-24T07:02:49;3.40;;;1.60;;
11313;SDS011;5712;48.858;9.206;2023-04-24T07:05:17;2.43;;;2.00;;
11313;SDS011;5712;48.858;9.206;2023-04-24T07:07:45;2.23;;;1.47;;
11313;SDS011;5712;48.858;9.206;2023-04-24T07:10:12;1.87;;;1.67;;
11313;SDS011;5712;48.858;9.206;2023-04-24T07:12:39;2.90;;;1.70;;
11313;SDS011;5712;48.858;9.206;2023-04-24T07:15:06;2.13;;;1.93;;
11313;SDS011;5712;48.858;9.206;2023-04-24T07:17:33;3.30;;;1.80;;
11313;SDS011;5712;48.858;9.206;2023-04-24T07:20:00;1.87;;;1.67;;
11313;SDS011;5712;48.858;9.206;2023-04-24T07:22:28;2.33;;;1.77;;
11313;SDS011;5712;48.858;9.206;2023-04-24T07:24:55;3.00;;;1.60;;
11313;SDS011;5712;48.858;9.206;2023-04-24T07:27:21;1.73;;;1.60;;
11313;SDS011;5712;48.858;9.206;2023-04-24T07:29:48;2.87;;;1.60;;
11313;SDS011;5712;48.858;9.206;2023-04-24T07:32:14;1.30;;;1.20;;
11313;SDS011;5712;48.858;9.206;2023-04-24T07:34:41;2.27;;;1.70;;
11313;SDS011;5712;48.858;9.206;2023-04-24T07:37:07;1.50;;;1.40;;
11313;SDS011;5712;48.858;9.206;2023-04-24T07:39:35;1.60;;;1.50;;
11313;SDS011;5712;48.858;9.206;2023-04-24T07:42:02;1.60;;;1.50;;
11313;SDS011;5712;48.858;9.206;2023-04-24T07:44:29;1.50;;;1.40;;
11313;SDS011;5712;48.858;9.206;2023-04-24T07:46:56;1.93;;;1.57;;
11313;SDS011;5712;48.858;9.206;2023-04-24T07:49:23;1.30;;;1.20;;
11313;SDS011;5712;48.858;9.206;2023-04-24T07:51:50;2.00;;;1.30;;
11313;SDS011;5712;48.858;9.206;2023-04-24T07:54:16;3.17;;;1.50;;
11313;SDS011;5712;48.858;9.206;2023-04-24T07:56:44;1.47;;;1.37;;
11313;SDS011;5712;48.858;9.206;2023-04-24T07:59:11;1.40;;;1.30;;
11313;SDS011;5712;48.858;9.206;2023-04-24T08:01:37;1.93;;;1.37;;
11313;SDS011;5712;48.858;9.206;2023-04-24T08:04:04;2.90;;;1.40;;
11313;SDS011;5712;48.858;9.206;2023-04-24T08:06:30;3.13;;;1.50;;
11313;SDS011;5712;48.858;9.206;2023-04-24T08:08:57;2.80;;;1.40;;
11313;SDS011;5712;48.858;9.206;2023-04-24T08:11:24;2.90;;;1.43;;
11313;SDS011;5712;48.858;9.206;2023-04-24T08:13:52;1.77;;;1.40;;
11313;SDS011;5712;48.858;9.206;2023-04-24T08:16:19;3.90;;;1.40;;
11313;SDS011;5712;48.858;9.206;2023-04-24T08:18:46;2.00;;;1.70;;
11313;SDS011;5712;48.858;9.206;2023-04-24T08:21:12;1.60;;;1.40;;
11313;SDS011;5712;48.858;9.206;2023-04-24T08:23:42;2.93;;;1.33;;
11313;SDS011;5712;48.858;9.206;2023-04-24T08:26:08;1.40;;;1.30;;
11313;SDS011;5712;48.858;9.206;2023-04-24T08:28:36;1.30;;;1.10;;
11313;SDS011;5712;48.858;9.206;2023-04-24T08:31:04;1.77;;;1.43;;
11313;SDS011;5712;48.858;9.206;2023-04-24T08:33:30;2.37;;;1.60;;
11313;SDS011;5712;48.858;9.206;2023-04-24T08:35:59;2.93;;;1.30;;
11313;SDS011;5712;48.858;9.206;2023-04-24T08:38:26;2.63;;;1.50;;
11313;SDS011;5712;48.858;9.206;2023-04-24T08:40:52;3.07;;;1.60;;
11313;SDS011;5712;48.858;9.206;2023-04-24T08:43:20;3.00;;;1.37;;
11313;SDS011;5712;48.858;9.206;2023-04-24T08:45:47;2.43;;;1.50;;
11313;SDS011;5712;48.858;9.206;2023-04-24T08:48:15;2.60;;;1.47;;
11313;SDS011;5712;48.858;9.206;2023-04-24T08:50:43;1.43;;;1.33;;
11313;SDS011;5712;48.858;9.206;2023-04-24T08:53:10;2.60;;;1.30;;
11313;SDS011;5712;48.858;9.206;2023-04-24T08:55:37;2.20;;;1.20;;
11313;SDS011;5712;48.858;9.206;2023-04-24T08:58:04;2.00;;;1.13;;
11313;SDS011;5712;48.858;9.206;2023-04-24T09:00:31;2.47;;;1.37;;
11313;SDS011;5712;48.858;9.206;2023-04-24T09:02:59;1.37;;;1.10;;
11313;SDS011;5712;48.858;9.206;2023-04-24T09:05:28;2.23;;;1.50;;
11313;SDS011;5712;48.858;9.206;2023-04-24T09:07:55;5.23;;;1.33;;
11313;SDS011;5712;48.858;9.206;2023-04-24T09:10:23;1.20;;;1.10;;
11313;SDS011;5712;48.858;9.206;2023-04-24T09:12:51;3.27;;;1.30;;
11313;SDS011;5712;48.858;9.206;2023-04-24T09:15:18;1.70;;;1.17;;
11313;SDS011;5712;48.858;9.206;2023-04-24T09:17:45;3.50;;;1.40;;
11313;SDS011;5712;48.858;9.206;2023-04-24T09:20:12;1.70;;;1.03;;
11313;SDS011;5712;48.858;9.206;2023-04-24T09:22:40;1.77;;;1.13;;
11313;SDS011;5712;48.858;9.206;2023-04-24T09:25:08;2.33;;;1.07;;
11313;SDS011;5712;48.858;9.206;2023-04-24T09:27:37;1.53;;;1.13;;
11313;SDS011;5712;48.858;9.206;2023-04-24T09:30:08;1.50;;;1.30;;
11313;SDS011;5712;48.858;9.206;2023-04-24T09:32:35;2.10;;;1.10;;
11313;SDS011;5712;48.858;9.206;2023-04-24T09:35:05;2.10;;;1.03;;
11313;SDS011;5712;48.858;9.206;2023-04-24T09:37:36;1.63;;;1.13;;
11313;SDS011;5712;48.858;9.206;2023-04-24T09:40:11;1.67;;;1.10;;
11313;SDS011;5712;48.858;9.206;2023-04-24T09:42:39;1.53;;;1.23;;
11313;SDS011;5712;48.858;9.206;2023-04-24T09:45:09;1.80;;;1.20;;
11313;SDS011;5712;48.858;9.206;2023-04-24T09:47:36;2.20;;;1.30;;
11313;SDS011;5712;48.858;9.206;2023-04-24T09:50:09;1.33;;;1.23;;
11313;SDS011;5712;48.858;9.206;2023-04-24T09:52:39;1.67;;;1.30;;
11313;SDS011;5712;48.858;9.206;2023-04-24T09:55:11;2.60;;;1.20;;
11313;SDS011;5712;48.858;9.206;2023-04-24T09:57:46;1.30;;;1.20;;
11313;SDS011;5712;48.858;9.206;2023-04-24T10:00:17;2.20;;;1.20;;
11313;SDS011;5712;48.858;9.206;2023-04-24T10:02:45;1.33;;;1.03;;
11313;SDS011;5712;48.858;9.206;2023-04-24T10:05:16;1.10;;;0.83;;
11313;SDS011;5712;48.858;9.206;2023-04-24T10:07:43;2.47;;;1.30;;
11313;SDS011;5712;48.858;9.206;2023-04-24T10:10:10;1.67;;;1.20;;
11313;SDS011;5712;48.858;9.206;2023-04-24T10:12:39;1.20;;;1.10;;
11313;SDS011;5712;48.858;9.206;2023-04-24T10:15:06;1.83;;;1.20;;
11313;SDS011;5712;48.858;9.206;2023-04-24T10:17:34;1.43;;;1.03;;
11313;SDS011;5712;48.858;9.206;2023-04-24T10:20:02;1.20;;;1.03;;
11313;SDS011;5712;48.858;9.206;2023-04-24T10:22:29;1.20;;;1.00;;
11313;SDS011;5712;48.858;9.206;2023-04-24T10:24:56;1.77;;;1.30;;
11313;SDS011;5712;48.858;9.206;2023-04-24T10:27:25;1.20;;;1.10;;
11313;SDS011;5712;48.858;9.206;2023-04-24T10:29:53;1.50;;;1.00;;
11313;SDS011;5712;48.858;9.206;2023-04-24T10:32:20;1.20;;;1.10;;
11313;SDS011;5712;48.858;9.206;2023-04-24T10:34:47;1.57;;;1.10;;
11313;SDS011;5712;48.858;9.206;2023-04-24T10:37:14;1.63;;;1.10;;
11313;SDS011;5712;48.858;9.206;2023-04-24T10:39:41;1.47;;;1.30;;
11313;SDS011;5712;48.858;9.206;2023-04-24T10:42:13;1.97;;;1.30;;
11313;SDS011;5712;48.858;9.206;2023-04-24T10:44:42;1.63;;;1.40;;
11313;SDS011;5712;48.858;9.206;2023-04-24T10:47:12;1.20;;;1.10;;
11313;SDS011;5712;48.858;9.206;2023-04-24T10:49:40;1.97;;;1.20;;
11313;SDS011;5712;48.858;9.206;2023-04-24T10:52:06;2.37;;;1.40;;
11313;SDS011;5712;48.858;9.206;2023-04-24T10:54:35;1.20;;;1.10;;
11313;SDS011;5712;48.858;9.206;2023-04-24T10:57:25;1.63;;;1.30;;
11313;SDS011;5712;48.858;9.206;2023-04-24T11:02:52;2.37;;;1.30;;
11313;SDS011;5712;48.858;9.206;2023-04-24T11:05:20;2.17;;;1.30;;
11313;SDS011;5712;48.858;9.206;2023-04-24T11:10:43;3.73;;;1.83;;
11313;SDS011;5712;48.858;9.206;2023-04-24T11:13:10;1.50;;;1.20;;
11313;SDS011;5712;48.858;9.206;2023-04-24T11:15:42;1.40;;;0.97;;
11313;SDS011;5712;48.858;9.206;2023-04-24T11:18:12;1.07;;;1.00;;
11313;SDS011;5712;48.858;9.206;2023-04-24T11:20:41;1.90;;;1.20;;
11313;SDS011;5712;48.858;9.206;2023-04-24T11:23:08;1.47;;;1.17;;
11313;SDS011;5712;48.858;9.206;2023-04-24T11:25:35;1.43;;;1.20;;
11313;SDS011;5712;48.858;9.206;2023-04-24T11:28:04;1.80;;;1.37;;
11313;SDS011;5712;48.858;9.206;2023-04-24T11:30:32;2.03;;;1.40;;
11313;SDS011;5712;48.858;9.206;2023-04-24T11:33:03;1.63;;;1.23;;
11313;SDS011;5712;48.858;9.206;2023-04-24T11:35:34;1.77;;;1.40;;
11313;SDS011;5712;48.858;9.206;2023-04-24T11:38:03;1.90;;;1.40;;
11313;SDS011;5712;48.858;9.206;2023-04-24T11:40:30;2.37;;;1.33;;
11313;SDS011;5712;48.858;9.206;2023-04-24T11:42:59;1.50;;;1.40;;
11313;SDS011;5712;48.858;9.206;2023-04-24T11:45:26;2.97;;;1.30;;
11313;SDS011;5712;48.858;9.206;2023-04-24T11:47:54;2.10;;;1.37;;
11313;SDS011;5712;48.858;9.206;2023-04-24T11:50:23;1.57;;;1.30;;
11313;SDS011;5712;48.858;9.206;2023-04-24T11:52:51;1.47;;;1.33;;
11313;SDS011;5712;48.858;9.206;2023-04-24T11:55:25;1.37;;;1.13;;
11313;SDS011;5712;48.858;9.206;2023-04-24T11:57:53;2.40;;;1.23;;
11313;SDS011;5712;48.858;9.206;2023-04-24T12:00:22;1.00;;;1.00;;
11313;SDS011;5712;48.858;9.206;2023-04-24T12:02:49;1.07;;;0.97;;
11313;SDS011;5712;48.858;9.206;2023-04-24T12:05:19;2.27;;;0.97;;
11313;SDS011;5712;48.858;9.206;2023-04-24T12:07:47;1.97;;;1.23;;
11313;SDS011;5712;48.858;9.206;2023-04-24T12:10:14;1.77;;;1.30;;
11313;SDS011;5712;48.858;9.206;2023-04-24T12:12:40;1.43;;;1.23;;
11313;SDS011;5712;48.858;9.206;2023-04-24T12:15:08;1.23;;;1.13;;
11313;SDS011;5712;48.858;9.206;2023-04-24T12:17:40;1.50;;;1.27;;
11313;SDS011;5712;48.858;9.206;2023-04-24T12:20:08;1.77;;;1.30;;
11313;SDS011;5712;48.858;9.206;2023-04-24T12:22:45;1.40;;;1.13;;
11313;SDS011;5712;48.858;9.206;2023-04-24T12:25:19;1.98;;;1.30;;
11313;SDS011;5712;48.858;9.206;2023-04-24T12:27:51;2.10;;;1.73;;
11313;SDS011;5712;48.858;9.206;2023-04-24T12:30:19;2.83;;;1.43;;
11313;SDS011;5712;48.858;9.206;2023-04-24T12:32:46;2.43;;;1.20;;
11313;SDS011;5712;48.858;9.206;2023-04-24T12:35:14;1.93;;;1.20;;
11313;SDS011;5712;48.858;9.206;2023-04-24T12:37:45;1.30;;;1.10;;
11313;SDS011;5712;48.858;9.206;2023-04-24T12:40:13;2.57;;;1.20;;
11313;SDS011;5712;48.858;9.206;2023-04-24T12:42:42;2.03;;;1.30;;
11313;SDS011;5712;48.858;9.206;2023-04-24T12:45:09;2.57;;;1.20;;
11313;SDS011;5712;48.858;9.206;2023-04-24T12:47:37;1.97;;;1.23;;
11313;SDS011;5712;48.858;9.206;2023-04-24T12:50:05;1.90;;;1.17;;
11313;SDS011;5712;48.858;9.206;2023-04-24T12:52:32;1.93;;;1.27;;
11313;SDS011;5712;48.858;9.206;2023-04-24T12:54:59;2.10;;;1.43;;
11313;SDS011;5712;48.858;9.206;2023-04-24T12:57:28;1.60;;;1.40;;
11313;SDS011;5712;48.858;9.206;2023-04-24T12:59:55;1.50;;;1.40;;
11313;SDS011;5712;48.858;9.206;2023-04-24T13:02:23;1.77;;;1.50;;
11313;SDS011;5712;48.858;9.206;2023-04-24T13:04:50;1.53;;;1.40;;
11313;SDS011;5712;48.858;9.206;2023-04-24T13:07:17;3.37;;;1.43;;
11313;SDS011;5712;48.858;9.206;2023-04-24T13:09:44;1.30;;;1.20;;
11313;SDS011;5712;48.858;9.206;2023-04-24T13:12:11;1.30;;;1.20;;
11313;SDS011;5712;48.858;9.206;2023-04-24T13:14:40;2.30;;;1.70;;
11313;SDS011;5712;48.858;9.206;2023-04-24T13:17:07;2.50;;;1.30;;
11313;SDS011;5712;48.858;9.206;2023-04-24T13:19:35;3.90;;;1.50;;
11313;SDS011;5712;48.858;9.206;2023-04-24T13:22:02;2.00;;;1.37;;
11313;SDS011;5712;48.858;9.206;2023-04-24T13:24:29;1.60;;;1.50;;
11313;SDS011;5712;48.858;9.206;2023-04-24T13:26:56;2.77;;;1.70;;
11313;SDS011;5712;48.858;9.206;2023-04-24T13:29:23;1.73;;;1.63;;
11313;SDS011;5712;48.858;9.206;2023-04-24T13:31:51;3.70;;;2.10;;
11313;SDS011;5712;48.858;9.206;2023-04-24T13:34:20;2.63;;;1.70;;
11313;SDS011;5712;48.858;9.206;2023-04-24T13:36:47;3.20;;;1.80;;
11313;SDS011;5712;48.858;9.206;2023-04-24T13:39:13;2.17;;;1.87;;
11313;SDS011;5712;48.858;9.206;2023-04-24T13:41:41;2.13;;;1.93;;
11313;SDS011;5712;48.858;9.206;2023-04-24T13:44:08;2.63;;;1.70;;
11313;SDS011;5712;48.858;9.206;2023-04-24T13:46:35;1.90;;;1.80;;
11313;SDS011;5712;48.858;9.206;2023-04-24T13:49:02;3.17;;;1.80;;
11313;SDS011;5712;48.858;9.206;2023-04-24T13:51:29;1.77;;;1.40;;
11313;SDS011;5712;48.858;9.206;2023-04-24T13:53:56;2.87;;;1.90;;
11313;SDS011;5712;48.858;9.206;2023-04-24T13:56:25;2.13;;;1.33;;
11313;SDS011;5712;48.858;9.206;2023-04-24T13:58:52;2.17;;;1.63;;
11313;SDS011;5712;48.858;9.206;2023-04-24T14:01:19;1.60;;;1.50;;
11313;SDS011;5712;48.858;9.206;2023-04-24T14:03:52;1.73;;;1.63;;
11313;SDS011;5712;48.858;9.206;2023-04-24T14:06:22;1.60;;;1.42;;
11313;SDS011;5712;48.858;9.206;2023-04-24T14:08:49;1.77;;;1.50;;
11313;SDS011;5712;48.858;9.206;2023-04-24T14:11:18;1.50;;;1.40;;
11313;SDS011;5712;48.858;9.206;2023-04-24T14:13:45;2.10;;;1.43;;
11313;SDS011;5712;48.858;9.206;2023-04-24T14:16:12;4.83;;;1.73;;
11313;SDS011;5712;48.858;9.206;2023-04-24T14:18:39;1.60;;;1.40;;
11313;SDS011;5712;48.858;9.206;2023-04-24T14:21:05;1.93;;;1.73;;
11313;SDS011;5712;48.858;9.206;2023-04-24T14:23:33;2.00;;;1.43;;
11313;SDS011;5712;48.858;9.206;2023-04-24T14:26:00;1.70;;;1.50;;
11313;SDS011;5712;48.858;9.206;2023-04-24T14:28:27;2.10;;;1.40;;
11313;SDS011;5712;48.858;9.206;2023-04-24T14:30:53;3.37;;;1.50;;
11313;SDS011;5712;48.858;9.206;2023-04-24T14:33:20;1.47;;;1.37;;
11313;SDS011;5712;48.858;9.206;2023-04-24T14:35:46;1.87;;;1.27;;
11313;SDS011;5712;48.858;9.206;2023-04-24T14:38:23;3.80;;;1.87;;
11313;SDS011;5712;48.858;9.206;2023-04-24T14:40:51;1.60;;;1.50;;
11313;SDS011;5712;48.858;9.206;2023-04-24T14:43:17;2.30;;;1.90;;
11313;SDS011;5712;48.858;9.206;2023-04-24T14:45:43;1.70;;;1.60;;
11313;SDS011;5712;48.858;9.206;2023-04-24T14:48:10;1.50;;;1.40;;
11313;SDS011;5712;48.858;9.206;2023-04-24T14:50:37;2.43;;;1.50;;
11313;SDS011;5712;48.858;9.206;2023-04-24T14:53:03;1.83;;;1.70;;
11313;SDS011;5712;48.858;9.206;2023-04-24T14:55:30;1.50;;;1.20;;
11313;SDS011;5712;48.858;9.206;2023-04-24T14:57:59;1.80;;;1.50;;
11313;SDS011;5712;48.858;9.206;2023-04-24T15:00:26;2.00;;;1.50;;
11313;SDS011;5712;48.858;9.206;2023-04-24T15:02:53;2.13;;;1.43;;
11313;SDS011;5712;48.858;9.206;2023-04-24T15:05:20;1.70;;;1.60;;
11313;SDS011;5712;48.858;9.206;2023-04-24T15:07:46;2.53;;;1.90;;